sensor_id;sensor_type;location;lat;lon;timestamp;P1;durP1;ratioP1;P2;durP2;ratioP2
67363;SDS011;54250;45.572;38.086;2023-08-21T00:01:21;11.85;;;1.90;;
67363;SDS011;54250;45.572;38.086;2023-08-21T00:03:47;6.68;;;2.22;;
67363;SDS011;54250;45.572;38.086;2023-08-21T00:06:13;3.65;;;2.15;;
67363;SDS011;54250;45.572;38.086;2023-08-21T00:08:39;8.57;;;2.28;;
67363;SDS011;54250;45.572;38.086;2023-08-21T00:11:05;5.60;;;2.33;;
67363;SDS011;54250;45.572;38.086;2023-08-21T00:13:31;6.53;;;2.30;;
67363;SDS011;54250;45.572;38.086;2023-08-21T00:15:57;12.70;;;2.10;;
67363;SDS011;54250;45.572;38.086;2023-08-21T00:18:23;5.72;;;2.42;;
67363;SDS011;54250;45.572;38.086;2023-08-21T00:20:48;8.60;;;2.37;;
67363;SDS011;54250;45.572;38.086;2023-08-21T01:41:46;7.68;;;2.65;;
67363;SDS011;54250;45.572;38.086;2023-08-21T01:44:13;12.43;;;2.95;;
67363;SDS011;54250;45.572;38.086;2023-08-21T01:46:39;19.13;;;3.20;;
67363;SDS011;54250;45.572;38.086;2023-08-21T01:49:05;4.75;;;2.75;;
67363;SDS011;54250;45.572;38.086;2023-08-21T01:51:31;9.73;;;2.58;;
67363;SDS011;54250;45.572;38.086;2023-08-21T01:53:57;13.23;;;2.55;;
67363;SDS011;54250;45.572;38.086;2023-08-21T01:56:23;7.40;;;2.47;;
67363;SDS011;54250;45.572;38.086;2023-08-21T01:58:49;17.13;;;2.80;;
67363;SDS011;54250;45.572;38.086;2023-08-21T02:01:15;5.90;;;2.72;;
67363;SDS011;54250;45.572;38.086;2023-08-21T02:03:41;5.88;;;2.42;;
67363;SDS011;54250;45.572;38.086;2023-08-21T02:06:07;10.13;;;2.95;;
67363;SDS011;54250;45.572;38.086;2023-08-21T02:08:33;7.50;;;2.53;;
67363;SDS011;54250;45.572;38.086;2023-08-21T02:10:59;13.93;;;2.38;;
67363;SDS011;54250;45.572;38.086;2023-08-21T02:13:25;9.70;;;2.60;;
67363;SDS011;54250;45.572;38.086;2023-08-21T02:15:51;7.28;;;2.45;;
67363;SDS011;54250;45.572;38.086;2023-08-21T02:18:18;6.72;;;2.55;;
67363;SDS011;54250;45.572;38.086;2023-08-21T02:20:44;6.45;;;2.38;;
67363;SDS011;54250;45.572;38.086;2023-08-21T02:23:10;6.95;;;2.50;;
67363;SDS011;54250;45.572;38.086;2023-08-21T02:25:36;4.75;;;2.13;;
67363;SDS011;54250;45.572;38.086;2023-08-21T02:28:02;13.57;;;2.47;;
67363;SDS011;54250;45.572;38.086;2023-08-21T02:30:29;12.30;;;2.50;;
67363;SDS011;54250;45.572;38.086;2023-08-21T02:32:56;14.38;;;2.60;;
67363;SDS011;54250;45.572;38.086;2023-08-21T02:35:22;4.43;;;2.17;;
67363;SDS011;54250;45.572;38.086;2023-08-21T02:37:49;13.02;;;2.45;;
67363;SDS011;54250;45.572;38.086;2023-08-21T02:40:15;6.60;;;2.50;;
67363;SDS011;54250;45.572;38.086;2023-08-21T02:42:41;15.02;;;2.90;;
67363;SDS011;54250;45.572;38.086;2023-08-21T02:45:07;11.23;;;2.55;;
67363;SDS011;54250;45.572;38.086;2023-08-21T02:47:37;8.30;;;2.20;;
67363;SDS011;54250;45.572;38.086;2023-08-21T02:50:04;12.50;;;2.60;;
67363;SDS011;54250;45.572;38.086;2023-08-21T02:52:31;16.08;;;2.33;;
67363;SDS011;54250;45.572;38.086;2023-08-21T02:54:58;5.13;;;2.67;;
67363;SDS011;54250;45.572;38.086;2023-08-21T02:57:25;12.82;;;2.70;;
67363;SDS011;54250;45.572;38.086;2023-08-21T02:59:52;5.18;;;2.53;;
67363;SDS011;54250;45.572;38.086;2023-08-21T03:02:18;12.82;;;2.65;;
67363;SDS011;54250;45.572;38.086;2023-08-21T03:04:45;5.38;;;2.55;;
67363;SDS011;54250;45.572;38.086;2023-08-21T03:07:11;15.13;;;3.30;;
67363;SDS011;54250;45.572;38.086;2023-08-21T03:09:38;8.05;;;2.60;;
67363;SDS011;54250;45.572;38.086;2023-08-21T03:12:05;14.00;;;2.38;;
67363;SDS011;54250;45.572;38.086;2023-08-21T03:14:33;19.30;;;2.72;;
67363;SDS011;54250;45.572;38.086;2023-08-21T03:16:59;18.08;;;2.67;;
67363;SDS011;54250;45.572;38.086;2023-08-21T03:19:25;7.28;;;3.58;;
67363;SDS011;54250;45.572;38.086;2023-08-21T03:21:51;8.48;;;2.30;;
67363;SDS011;54250;45.572;38.086;2023-08-21T03:24:18;17.30;;;2.65;;
67363;SDS011;54250;45.572;38.086;2023-08-21T03:26:44;10.95;;;2.80;;
67363;SDS011;54250;45.572;38.086;2023-08-21T03:29:10;15.13;;;3.10;;
67363;SDS011;54250;45.572;38.086;2023-08-21T03:31:36;11.07;;;2.80;;
67363;SDS011;54250;45.572;38.086;2023-08-21T03:34:02;8.60;;;2.83;;
67363;SDS011;54250;45.572;38.086;2023-08-21T03:36:28;10.07;;;2.60;;
67363;SDS011;54250;45.572;38.086;2023-08-21T03:38:58;14.85;;;2.83;;
67363;SDS011;54250;45.572;38.086;2023-08-21T03:41:26;17.70;;;2.88;;
67363;SDS011;54250;45.572;38.086;2023-08-21T03:43:52;18.85;;;3.03;;
67363;SDS011;54250;45.572;38.086;2023-08-21T03:46:18;16.95;;;2.47;;
67363;SDS011;54250;45.572;38.086;2023-08-21T03:48:44;11.48;;;3.13;;
67363;SDS011;54250;45.572;38.086;2023-08-21T03:51:10;20.80;;;5.05;;
67363;SDS011;54250;45.572;38.086;2023-08-21T03:53:36;19.98;;;3.75;;
67363;SDS011;54250;45.572;38.086;2023-08-21T03:56:02;30.27;;;4.20;;
67363;SDS011;54250;45.572;38.086;2023-08-21T03:58:28;47.70;;;4.10;;
67363;SDS011;54250;45.572;38.086;2023-08-21T04:00:56;26.85;;;4.43;;
67363;SDS011;54250;45.572;38.086;2023-08-21T04:03:23;24.70;;;3.80;;
67363;SDS011;54250;45.572;38.086;2023-08-21T04:05:49;13.88;;;2.97;;
67363;SDS011;54250;45.572;38.086;2023-08-21T04:08:16;20.08;;;3.40;;
67363;SDS011;54250;45.572;38.086;2023-08-21T04:10:42;36.72;;;4.38;;
67363;SDS011;54250;45.572;38.086;2023-08-21T04:13:07;18.35;;;4.07;;
67363;SDS011;54250;45.572;38.086;2023-08-21T04:15:34;29.92;;;3.90;;
67363;SDS011;54250;45.572;38.086;2023-08-21T04:18:04;18.90;;;3.38;;
67363;SDS011;54250;45.572;38.086;2023-08-21T04:20:30;16.45;;;2.80;;
67363;SDS011;54250;45.572;38.086;2023-08-21T04:22:56;17.30;;;3.70;;
67363;SDS011;54250;45.572;38.086;2023-08-21T04:25:22;27.67;;;3.78;;
67363;SDS011;54250;45.572;38.086;2023-08-21T04:27:48;32.17;;;4.32;;
67363;SDS011;54250;45.572;38.086;2023-08-21T04:30:14;29.77;;;4.13;;
67363;SDS011;54250;45.572;38.086;2023-08-21T04:32:40;10.98;;;3.38;;
67363;SDS011;54250;45.572;38.086;2023-08-21T04:35:08;9.18;;;2.38;;
67363;SDS011;54250;45.572;38.086;2023-08-21T04:37:34;29.30;;;3.03;;
67363;SDS011;54250;45.572;38.086;2023-08-21T04:40:01;11.43;;;2.92;;
67363;SDS011;54250;45.572;38.086;2023-08-21T04:42:27;16.92;;;3.08;;
67363;SDS011;54250;45.572;38.086;2023-08-21T04:44:53;11.50;;;2.72;;
67363;SDS011;54250;45.572;38.086;2023-08-21T04:47:21;14.73;;;2.78;;
67363;SDS011;54250;45.572;38.086;2023-08-21T04:49:49;18.25;;;3.28;;
67363;SDS011;54250;45.572;38.086;2023-08-21T04:52:16;19.60;;;3.60;;
67363;SDS011;54250;45.572;38.086;2023-08-21T04:54:43;23.05;;;3.03;;
67363;SDS011;54250;45.572;38.086;2023-08-21T04:57:09;13.15;;;3.17;;
67363;SDS011;54250;45.572;38.086;2023-08-21T04:59:35;20.98;;;3.75;;
67363;SDS011;54250;45.572;38.086;2023-08-21T05:02:02;24.85;;;3.33;;
67363;SDS011;54250;45.572;38.086;2023-08-21T05:04:28;13.50;;;3.20;;
67363;SDS011;54250;45.572;38.086;2023-08-21T05:06:54;13.32;;;4.05;;
67363;SDS011;54250;45.572;38.086;2023-08-21T05:09:21;9.27;;;2.80;;
67363;SDS011;54250;45.572;38.086;2023-08-21T05:11:47;13.13;;;2.80;;
67363;SDS011;54250;45.572;38.086;2023-08-21T05:14:13;17.13;;;3.42;;
67363;SDS011;54250;45.572;38.086;2023-08-21T05:16:39;12.57;;;3.00;;
67363;SDS011;54250;45.572;38.086;2023-08-21T05:19:05;19.77;;;3.47;;
67363;SDS011;54250;45.572;38.086;2023-08-21T05:21:31;134.50;;;9.73;;
67363;SDS011;54250;45.572;38.086;2023-08-21T05:23:57;11.63;;;3.72;;
67363;SDS011;54250;45.572;38.086;2023-08-21T05:26:25;11.82;;;3.35;;
67363;SDS011;54250;45.572;38.086;2023-08-21T05:28:51;13.80;;;2.65;;
67363;SDS011;54250;45.572;38.086;2023-08-21T05:31:17;11.30;;;3.50;;
67363;SDS011;54250;45.572;38.086;2023-08-21T05:33:52;21.27;;;3.22;;
67363;SDS011;54250;45.572;38.086;2023-08-21T05:36:18;14.57;;;3.35;;
67363;SDS011;54250;45.572;38.086;2023-08-21T05:38:45;20.33;;;4.07;;
67363;SDS011;54250;45.572;38.086;2023-08-21T05:41:13;15.05;;;3.38;;
67363;SDS011;54250;45.572;38.086;2023-08-21T05:43:40;33.22;;;4.25;;
67363;SDS011;54250;45.572;38.086;2023-08-21T05:46:09;37.10;;;5.03;;
67363;SDS011;54250;45.572;38.086;2023-08-21T05:48:36;47.95;;;5.07;;
67363;SDS011;54250;45.572;38.086;2023-08-21T05:51:02;29.92;;;4.35;;
67363;SDS011;54250;45.572;38.086;2023-08-21T05:53:28;31.27;;;3.65;;
67363;SDS011;54250;45.572;38.086;2023-08-21T05:55:54;26.95;;;3.65;;
67363;SDS011;54250;45.572;38.086;2023-08-21T05:58:21;22.80;;;3.42;;
67363;SDS011;54250;45.572;38.086;2023-08-21T06:00:48;21.90;;;3.05;;
67363;SDS011;54250;45.572;38.086;2023-08-21T06:03:15;31.85;;;3.70;;
67363;SDS011;54250;45.572;38.086;2023-08-21T06:05:54;18.27;;;3.40;;
67363;SDS011;54250;45.572;38.086;2023-08-21T06:08:20;22.35;;;3.25;;
67363;SDS011;54250;45.572;38.086;2023-08-21T06:10:50;24.15;;;3.40;;
67363;SDS011;54250;45.572;38.086;2023-08-21T06:13:17;18.02;;;3.47;;
67363;SDS011;54250;45.572;38.086;2023-08-21T06:15:44;20.92;;;3.03;;
67363;SDS011;54250;45.572;38.086;2023-08-21T06:18:11;20.27;;;3.55;;
67363;SDS011;54250;45.572;38.086;2023-08-21T06:20:37;23.30;;;3.53;;
67363;SDS011;54250;45.572;38.086;2023-08-21T06:23:03;15.18;;;3.13;;
67363;SDS011;54250;45.572;38.086;2023-08-21T06:25:29;24.65;;;3.35;;
67363;SDS011;54250;45.572;38.086;2023-08-21T06:27:56;17.63;;;3.10;;
67363;SDS011;54250;45.572;38.086;2023-08-21T06:30:22;12.82;;;3.10;;
67363;SDS011;54250;45.572;38.086;2023-08-21T06:32:48;22.00;;;3.85;;
67363;SDS011;54250;45.572;38.086;2023-08-21T06:35:14;14.38;;;3.50;;
67363;SDS011;54250;45.572;38.086;2023-08-21T06:37:41;17.40;;;3.40;;
67363;SDS011;54250;45.572;38.086;2023-08-21T06:40:07;14.82;;;3.42;;
67363;SDS011;54250;45.572;38.086;2023-08-21T06:42:33;9.30;;;2.90;;
67363;SDS011;54250;45.572;38.086;2023-08-21T06:45:00;19.10;;;3.35;;
67363;SDS011;54250;45.572;38.086;2023-08-21T06:47:26;24.33;;;3.70;;
67363;SDS011;54250;45.572;38.086;2023-08-21T06:49:52;11.88;;;3.08;;
67363;SDS011;54250;45.572;38.086;2023-08-21T06:52:18;16.75;;;3.17;;
67363;SDS011;54250;45.572;38.086;2023-08-21T06:54:44;33.08;;;3.72;;
67363;SDS011;54250;45.572;38.086;2023-08-21T06:57:10;23.00;;;3.13;;
67363;SDS011;54250;45.572;38.086;2023-08-21T06:59:36;17.90;;;3.28;;
67363;SDS011;54250;45.572;38.086;2023-08-21T07:02:02;20.45;;;3.30;;
67363;SDS011;54250;45.572;38.086;2023-08-21T07:04:28;11.95;;;3.05;;
67363;SDS011;54250;45.572;38.086;2023-08-21T07:06:54;6.95;;;2.65;;
67363;SDS011;54250;45.572;38.086;2023-08-21T07:09:20;18.35;;;3.72;;
67363;SDS011;54250;45.572;38.086;2023-08-21T07:11:46;18.40;;;3.38;;
67363;SDS011;54250;45.572;38.086;2023-08-21T07:14:12;9.35;;;2.72;;
67363;SDS011;54250;45.572;38.086;2023-08-21T07:16:39;10.73;;;3.05;;
67363;SDS011;54250;45.572;38.086;2023-08-21T07:19:05;23.80;;;3.17;;
67363;SDS011;54250;45.572;38.086;2023-08-21T07:21:31;22.02;;;3.53;;
67363;SDS011;54250;45.572;38.086;2023-08-21T07:23:59;16.00;;;2.90;;
67363;SDS011;54250;45.572;38.086;2023-08-21T07:26:25;9.15;;;2.65;;
67363;SDS011;54250;45.572;38.086;2023-08-21T07:28:51;13.23;;;2.92;;
67363;SDS011;54250;45.572;38.086;2023-08-21T07:31:18;19.00;;;4.18;;
67363;SDS011;54250;45.572;38.086;2023-08-21T07:33:44;16.52;;;2.92;;
67363;SDS011;54250;45.572;38.086;2023-08-21T07:36:10;20.00;;;3.10;;
67363;SDS011;54250;45.572;38.086;2023-08-21T07:38:40;36.95;;;3.75;;
67363;SDS011;54250;45.572;38.086;2023-08-21T07:41:07;19.10;;;3.05;;
67363;SDS011;54250;45.572;38.086;2023-08-21T07:43:35;20.13;;;3.30;;
67363;SDS011;54250;45.572;38.086;2023-08-21T07:46:05;17.88;;;3.40;;
67363;SDS011;54250;45.572;38.086;2023-08-21T07:48:32;19.93;;;3.13;;
67363;SDS011;54250;45.572;38.086;2023-08-21T07:50:58;10.57;;;2.88;;
67363;SDS011;54250;45.572;38.086;2023-08-21T07:53:25;19.42;;;3.35;;
67363;SDS011;54250;45.572;38.086;2023-08-21T07:55:52;22.58;;;3.10;;
67363;SDS011;54250;45.572;38.086;2023-08-21T07:58:18;17.90;;;3.10;;
67363;SDS011;54250;45.572;38.086;2023-08-21T08:00:44;18.75;;;2.75;;
67363;SDS011;54250;45.572;38.086;2023-08-21T08:03:11;7.93;;;2.83;;
67363;SDS011;54250;45.572;38.086;2023-08-21T08:05:39;18.10;;;3.13;;
67363;SDS011;54250;45.572;38.086;2023-08-21T08:08:07;17.42;;;2.97;;
67363;SDS011;54250;45.572;38.086;2023-08-21T08:10:36;17.13;;;3.10;;
67363;SDS011;54250;45.572;38.086;2023-08-21T08:13:04;20.80;;;3.13;;
67363;SDS011;54250;45.572;38.086;2023-08-21T08:15:30;18.33;;;3.50;;
67363;SDS011;54250;45.572;38.086;2023-08-21T08:17:57;15.52;;;2.80;;
67363;SDS011;54250;45.572;38.086;2023-08-21T08:20:23;21.25;;;3.10;;
67363;SDS011;54250;45.572;38.086;2023-08-21T08:22:49;22.50;;;3.45;;
67363;SDS011;54250;45.572;38.086;2023-08-21T08:25:15;20.90;;;2.63;;
67363;SDS011;54250;45.572;38.086;2023-08-21T08:27:41;16.33;;;2.85;;
67363;SDS011;54250;45.572;38.086;2023-08-21T08:30:07;12.15;;;2.50;;
67363;SDS011;54250;45.572;38.086;2023-08-21T08:32:33;20.60;;;3.13;;
67363;SDS011;54250;45.572;38.086;2023-08-21T08:35:00;25.17;;;3.60;;
67363;SDS011;54250;45.572;38.086;2023-08-21T08:37:26;13.23;;;2.58;;
67363;SDS011;54250;45.572;38.086;2023-08-21T08:39:51;7.70;;;2.67;;
67363;SDS011;54250;45.572;38.086;2023-08-21T08:42:17;17.33;;;2.60;;
67363;SDS011;54250;45.572;38.086;2023-08-21T08:44:43;20.42;;;2.83;;
67363;SDS011;54250;45.572;38.086;2023-08-21T08:47:10;14.75;;;3.13;;
67363;SDS011;54250;45.572;38.086;2023-08-21T08:49:37;18.52;;;2.72;;
67363;SDS011;54250;45.572;38.086;2023-08-21T08:52:03;13.85;;;2.70;;
67363;SDS011;54250;45.572;38.086;2023-08-21T08:54:30;15.02;;;2.95;;
67363;SDS011;54250;45.572;38.086;2023-08-21T08:56:57;22.92;;;3.08;;
67363;SDS011;54250;45.572;38.086;2023-08-21T08:59:24;14.88;;;2.60;;
67363;SDS011;54250;45.572;38.086;2023-08-21T09:01:50;26.60;;;2.70;;
67363;SDS011;54250;45.572;38.086;2023-08-21T09:04:16;19.98;;;2.90;;
67363;SDS011;54250;45.572;38.086;2023-08-21T09:06:42;30.77;;;3.00;;
67363;SDS011;54250;45.572;38.086;2023-08-21T09:09:08;11.57;;;2.40;;
67363;SDS011;54250;45.572;38.086;2023-08-21T09:11:46;13.55;;;3.00;;
67363;SDS011;54250;45.572;38.086;2023-08-21T09:14:13;15.98;;;2.90;;
67363;SDS011;54250;45.572;38.086;2023-08-21T09:16:57;15.52;;;2.88;;
67363;SDS011;54250;45.572;38.086;2023-08-21T09:19:26;18.73;;;2.90;;
67363;SDS011;54250;45.572;38.086;2023-08-21T09:21:52;12.57;;;2.78;;
67363;SDS011;54250;45.572;38.086;2023-08-21T09:24:18;9.38;;;2.53;;
67363;SDS011;54250;45.572;38.086;2023-08-21T09:26:44;14.68;;;2.30;;
67363;SDS011;54250;45.572;38.086;2023-08-21T09:29:10;12.43;;;2.30;;
67363;SDS011;54250;45.572;38.086;2023-08-21T09:31:36;14.27;;;2.30;;
67363;SDS011;54250;45.572;38.086;2023-08-21T09:34:03;6.85;;;2.75;;
67363;SDS011;54250;45.572;38.086;2023-08-21T09:36:33;10.53;;;3.07;;
67363;SDS011;54250;45.572;38.086;2023-08-21T09:39:01;16.52;;;2.33;;
67363;SDS011;54250;45.572;38.086;2023-08-21T09:41:28;12.23;;;2.92;;
67363;SDS011;54250;45.572;38.086;2023-08-21T09:43:58;12.85;;;1.98;;
67363;SDS011;54250;45.572;38.086;2023-08-21T09:46:25;6.10;;;1.70;;
67363;SDS011;54250;45.572;38.086;2023-08-21T09:48:52;20.40;;;2.78;;
67363;SDS011;54250;45.572;38.086;2023-08-21T09:51:19;10.77;;;2.53;;
67363;SDS011;54250;45.572;38.086;2023-08-21T09:53:49;7.45;;;2.22;;
67363;SDS011;54250;45.572;38.086;2023-08-21T09:56:17;17.55;;;3.33;;
67363;SDS011;54250;45.572;38.086;2023-08-21T09:58:46;7.53;;;2.05;;
67363;SDS011;54250;45.572;38.086;2023-08-21T10:01:13;18.30;;;2.35;;
67363;SDS011;54250;45.572;38.086;2023-08-21T10:03:42;11.02;;;2.10;;
67363;SDS011;54250;45.572;38.086;2023-08-21T10:06:12;15.23;;;2.13;;
67363;SDS011;54250;45.572;38.086;2023-08-21T10:08:41;9.90;;;2.35;;
67363;SDS011;54250;45.572;38.086;2023-08-21T10:11:11;7.90;;;2.08;;
67363;SDS011;54250;45.572;38.086;2023-08-21T10:13:37;18.17;;;2.60;;
67363;SDS011;54250;45.572;38.086;2023-08-21T10:16:04;10.50;;;2.25;;
67363;SDS011;54250;45.572;38.086;2023-08-21T10:21:12;15.50;;;2.30;;
67363;SDS011;54250;45.572;38.086;2023-08-21T10:23:46;16.23;;;1.85;;
67363;SDS011;54250;45.572;38.086;2023-08-21T10:26:20;9.80;;;2.00;;
67363;SDS011;54250;45.572;38.086;2023-08-21T10:28:49;9.80;;;2.30;;
67363;SDS011;54250;45.572;38.086;2023-08-21T10:33:59;9.27;;;1.95;;
67363;SDS011;54250;45.572;38.086;2023-08-21T10:41:53;11.90;;;1.83;;
67363;SDS011;54250;45.572;38.086;2023-08-21T10:49:55;12.40;;;1.70;;
67363;SDS011;54250;45.572;38.086;2023-08-21T10:55:03;10.93;;;1.55;;
67363;SDS011;54250;45.572;38.086;2023-08-21T10:57:30;6.85;;;1.50;;
67363;SDS011;54250;45.572;38.086;2023-08-21T11:00:01;9.80;;;1.38;;
67363;SDS011;54250;45.572;38.086;2023-08-21T11:02:35;7.18;;;1.25;;
67363;SDS011;54250;45.572;38.086;2023-08-21T11:05:02;11.80;;;1.85;;
67363;SDS011;54250;45.572;38.086;2023-08-21T11:07:28;11.10;;;1.70;;
67363;SDS011;54250;45.572;38.086;2023-08-21T11:09:55;5.90;;;1.48;;
67363;SDS011;54250;45.572;38.086;2023-08-21T11:12:22;8.43;;;1.30;;
67363;SDS011;54250;45.572;38.086;2023-08-21T11:14:49;9.45;;;1.70;;
67363;SDS011;54250;45.572;38.086;2023-08-21T11:17:15;8.93;;;1.50;;
67363;SDS011;54250;45.572;38.086;2023-08-21T11:19:43;3.70;;;1.42;;
67363;SDS011;54250;45.572;38.086;2023-08-21T11:22:11;9.52;;;1.73;;
67363;SDS011;54250;45.572;38.086;2023-08-21T11:27:09;10.45;;;1.40;;
67363;SDS011;54250;45.572;38.086;2023-08-21T11:29:38;30.33;;;2.33;;
67363;SDS011;54250;45.572;38.086;2023-08-21T11:32:14;10.27;;;1.48;;
67363;SDS011;54250;45.572;38.086;2023-08-21T11:34:42;13.10;;;1.73;;
67363;SDS011;54250;45.572;38.086;2023-08-21T11:37:22;15.73;;;1.77;;
67363;SDS011;54250;45.572;38.086;2023-08-21T11:39:51;11.80;;;1.45;;
67363;SDS011;54250;45.572;38.086;2023-08-21T11:42:19;7.70;;;1.45;;
67363;SDS011;54250;45.572;38.086;2023-08-21T11:44:52;12.23;;;1.50;;
67363;SDS011;54250;45.572;38.086;2023-08-21T11:47:19;15.13;;;1.85;;
67363;SDS011;54250;45.572;38.086;2023-08-21T11:49:49;13.60;;;1.60;;
67363;SDS011;54250;45.572;38.086;2023-08-21T11:52:20;15.55;;;1.50;;
67363;SDS011;54250;45.572;38.086;2023-08-21T11:54:51;7.03;;;1.30;;
67363;SDS011;54250;45.572;38.086;2023-08-21T11:57:18;6.13;;;1.30;;
67363;SDS011;54250;45.572;38.086;2023-08-21T11:59:50;11.98;;;1.70;;
67363;SDS011;54250;45.572;38.086;2023-08-21T12:02:24;15.60;;;1.10;;
67363;SDS011;54250;45.572;38.086;2023-08-21T12:04:52;5.13;;;1.05;;
67363;SDS011;54250;45.572;38.086;2023-08-21T12:07:19;9.52;;;1.58;;
67363;SDS011;54250;45.572;38.086;2023-08-21T12:09:48;9.60;;;1.02;;
67363;SDS011;54250;45.572;38.086;2023-08-21T12:12:15;7.45;;;1.20;;
67363;SDS011;54250;45.572;38.086;2023-08-21T12:14:41;3.92;;;1.30;;
67363;SDS011;54250;45.572;38.086;2023-08-21T12:17:07;3.65;;;1.08;;
67363;SDS011;54250;45.572;38.086;2023-08-21T12:19:33;19.85;;;2.10;;
67363;SDS011;54250;45.572;38.086;2023-08-21T12:21:59;7.25;;;1.40;;
67363;SDS011;54250;45.572;38.086;2023-08-21T12:24:25;4.63;;;1.27;;
67363;SDS011;54250;45.572;38.086;2023-08-21T12:26:51;11.25;;;1.30;;
67363;SDS011;54250;45.572;38.086;2023-08-21T12:29:17;4.10;;;0.82;;
67363;SDS011;54250;45.572;38.086;2023-08-21T12:31:43;12.13;;;1.58;;
67363;SDS011;54250;45.572;38.086;2023-08-21T12:34:09;20.80;;;1.60;;
67363;SDS011;54250;45.572;38.086;2023-08-21T12:36:35;8.75;;;1.23;;
67363;SDS011;54250;45.572;38.086;2023-08-21T12:39:02;12.18;;;1.20;;
67363;SDS011;54250;45.572;38.086;2023-08-21T12:41:29;24.83;;;2.38;;
67363;SDS011;54250;45.572;38.086;2023-08-21T12:43:55;19.70;;;2.25;;
67363;SDS011;54250;45.572;38.086;2023-08-21T12:46:21;9.98;;;1.70;;
67363;SDS011;54250;45.572;38.086;2023-08-21T12:48:47;5.40;;;1.63;;
67363;SDS011;54250;45.572;38.086;2023-08-21T12:51:13;8.07;;;1.73;;
67363;SDS011;54250;45.572;38.086;2023-08-21T12:53:39;9.25;;;1.52;;
67363;SDS011;54250;45.572;38.086;2023-08-21T12:56:05;5.75;;;1.73;;
67363;SDS011;54250;45.572;38.086;2023-08-21T12:58:31;10.80;;;1.80;;
67363;SDS011;54250;45.572;38.086;2023-08-21T13:00:58;17.63;;;2.72;;
67363;SDS011;54250;45.572;38.086;2023-08-21T13:03:27;15.10;;;3.33;;
67363;SDS011;54250;45.572;38.086;2023-08-21T13:05:53;15.45;;;2.63;;
67363;SDS011;54250;45.572;38.086;2023-08-21T13:08:19;13.07;;;1.73;;
67363;SDS011;54250;45.572;38.086;2023-08-21T13:10:46;16.92;;;1.60;;
67363;SDS011;54250;45.572;38.086;2023-08-21T13:13:12;7.30;;;1.58;;
67363;SDS011;54250;45.572;38.086;2023-08-21T13:15:38;2.28;;;1.20;;
67363;SDS011;54250;45.572;38.086;2023-08-21T13:18:04;22.63;;;2.08;;
67363;SDS011;54250;45.572;38.086;2023-08-21T13:20:30;10.55;;;1.98;;
67363;SDS011;54250;45.572;38.086;2023-08-21T13:22:56;7.57;;;1.65;;
67363;SDS011;54250;45.572;38.086;2023-08-21T13:25:23;10.45;;;2.22;;
67363;SDS011;54250;45.572;38.086;2023-08-21T13:27:52;32.63;;;2.70;;
67363;SDS011;54250;45.572;38.086;2023-08-21T13:30:18;57.75;;;4.90;;
67363;SDS011;54250;45.572;38.086;2023-08-21T13:32:45;15.02;;;1.88;;
67363;SDS011;54250;45.572;38.086;2023-08-21T13:35:11;11.70;;;1.80;;
67363;SDS011;54250;45.572;38.086;2023-08-21T13:37:38;12.45;;;2.08;;
67363;SDS011;54250;45.572;38.086;2023-08-21T13:40:04;13.43;;;1.90;;
67363;SDS011;54250;45.572;38.086;2023-08-21T13:42:42;13.07;;;2.17;;
67363;SDS011;54250;45.572;38.086;2023-08-21T13:45:10;7.40;;;1.50;;
67363;SDS011;54250;45.572;38.086;2023-08-21T13:47:41;10.32;;;1.58;;
67363;SDS011;54250;45.572;38.086;2023-08-21T13:50:08;7.47;;;1.60;;
67363;SDS011;54250;45.572;38.086;2023-08-21T13:52:35;13.52;;;1.90;;
67363;SDS011;54250;45.572;38.086;2023-08-21T13:55:02;13.05;;;1.90;;
67363;SDS011;54250;45.572;38.086;2023-08-21T13:57:29;3.08;;;1.63;;
67363;SDS011;54250;45.572;38.086;2023-08-21T13:59:55;3.08;;;1.73;;
67363;SDS011;54250;45.572;38.086;2023-08-21T14:02:21;9.88;;;1.73;;
67363;SDS011;54250;45.572;38.086;2023-08-21T14:04:48;4.95;;;1.48;;
67363;SDS011;54250;45.572;38.086;2023-08-21T14:07:15;7.90;;;1.60;;
67363;SDS011;54250;45.572;38.086;2023-08-21T14:09:41;4.28;;;1.95;;
67363;SDS011;54250;45.572;38.086;2023-08-21T14:12:07;26.13;;;3.58;;
67363;SDS011;54250;45.572;38.086;2023-08-21T14:14:33;28.40;;;3.78;;
67363;SDS011;54250;45.572;38.086;2023-08-21T14:17:02;10.43;;;2.47;;
67363;SDS011;54250;45.572;38.086;2023-08-21T14:19:29;10.45;;;1.80;;
67363;SDS011;54250;45.572;38.086;2023-08-21T14:21:57;42.13;;;5.30;;
67363;SDS011;54250;45.572;38.086;2023-08-21T14:24:24;16.95;;;2.05;;
67363;SDS011;54250;45.572;38.086;2023-08-21T14:26:50;5.32;;;1.80;;
67363;SDS011;54250;45.572;38.086;2023-08-21T14:29:16;27.65;;;3.30;;
67363;SDS011;54250;45.572;38.086;2023-08-21T14:31:42;26.08;;;2.28;;
67363;SDS011;54250;45.572;38.086;2023-08-21T14:34:08;17.48;;;2.38;;
67363;SDS011;54250;45.572;38.086;2023-08-21T14:36:33;6.38;;;1.85;;
67363;SDS011;54250;45.572;38.086;2023-08-21T14:39:00;26.10;;;2.00;;
67363;SDS011;54250;45.572;38.086;2023-08-21T14:41:26;20.05;;;2.08;;
67363;SDS011;54250;45.572;38.086;2023-08-21T14:43:52;4.88;;;1.88;;
67363;SDS011;54250;45.572;38.086;2023-08-21T14:46:17;7.95;;;2.50;;
67363;SDS011;54250;45.572;38.086;2023-08-21T14:48:43;4.10;;;1.75;;
67363;SDS011;54250;45.572;38.086;2023-08-21T14:51:09;8.70;;;1.70;;
67363;SDS011;54250;45.572;38.086;2023-08-21T14:53:35;10.02;;;2.08;;
67363;SDS011;54250;45.572;38.086;2023-08-21T14:56:01;5.40;;;1.50;;
67363;SDS011;54250;45.572;38.086;2023-08-21T14:58:28;6.03;;;1.75;;
67363;SDS011;54250;45.572;38.086;2023-08-21T15:00:54;9.15;;;1.73;;
67363;SDS011;54250;45.572;38.086;2023-08-21T15:03:21;7.85;;;1.70;;
67363;SDS011;54250;45.572;38.086;2023-08-21T15:05:47;14.88;;;2.03;;
67363;SDS011;54250;45.572;38.086;2023-08-21T15:08:13;11.20;;;1.80;;
67363;SDS011;54250;45.572;38.086;2023-08-21T15:10:39;7.05;;;1.80;;
67363;SDS011;54250;45.572;38.086;2023-08-21T15:13:05;9.23;;;2.25;;
67363;SDS011;54250;45.572;38.086;2023-08-21T15:15:31;11.95;;;2.10;;
67363;SDS011;54250;45.572;38.086;2023-08-21T15:17:57;20.27;;;2.47;;
67363;SDS011;54250;45.572;38.086;2023-08-21T15:20:23;20.20;;;2.50;;
67363;SDS011;54250;45.572;38.086;2023-08-21T15:22:49;21.60;;;1.92;;
67363;SDS011;54250;45.572;38.086;2023-08-21T15:25:16;14.35;;;2.00;;
67363;SDS011;54250;45.572;38.086;2023-08-21T15:27:42;43.30;;;3.97;;
67363;SDS011;54250;45.572;38.086;2023-08-21T15:30:08;22.58;;;2.38;;
67363;SDS011;54250;45.572;38.086;2023-08-21T15:32:34;51.28;;;5.70;;
67363;SDS011;54250;45.572;38.086;2023-08-21T15:35:00;76.50;;;5.38;;
67363;SDS011;54250;45.572;38.086;2023-08-21T15:37:28;50.28;;;5.20;;
67363;SDS011;54250;45.572;38.086;2023-08-21T15:39:53;37.65;;;3.53;;
67363;SDS011;54250;45.572;38.086;2023-08-21T15:42:19;20.95;;;1.90;;
67363;SDS011;54250;45.572;38.086;2023-08-21T15:44:45;28.40;;;2.80;;
67363;SDS011;54250;45.572;38.086;2023-08-21T15:47:11;17.52;;;2.30;;
67363;SDS011;54250;45.572;38.086;2023-08-21T15:49:37;9.20;;;1.85;;
67363;SDS011;54250;45.572;38.086;2023-08-21T15:52:03;8.50;;;1.40;;
67363;SDS011;54250;45.572;38.086;2023-08-21T15:54:30;10.43;;;2.33;;
67363;SDS011;54250;45.572;38.086;2023-08-21T15:57:00;6.18;;;1.52;;
67363;SDS011;54250;45.572;38.086;2023-08-21T15:59:26;11.82;;;1.85;;
67363;SDS011;54250;45.572;38.086;2023-08-21T16:01:52;13.20;;;1.85;;
67363;SDS011;54250;45.572;38.086;2023-08-21T16:04:18;11.50;;;1.73;;